Time;durP1;ratioP1;P1;durP2;ratioP2;P2;SDS_P1;SDS_P2;PMS_P1;PMS_P2;Temp;Humidity;BMP_temperature;BMP_pressure;BME280_temperature;BME280_humidity;BME280_pressure;Samples;Min_cycle;Max_cycle;Signal;HPM_P1;HPM_P2
2022/11/10 05:43:56;;;;;;;;;;;;;;;7.61;100.00;100557.75;4885819;27;7403749;-64
2022/11/10 05:46:24;;;;;;;;;;;;;;;7.94;100.00;100566.22;5149036;27;1288;-64
2022/11/10 05:48:50;;;;;;;;;;;;;;;8.38;100.00;100563.06;5150344;27;819;-64
2022/11/10 05:51:17;;;;;;;;;;;;;;;8.83;100.00;100568.06;5150112;27;1974;-65
2022/11/10 05:53:43;;;;;;;;;;;;;;;9.17;100.00;100578.00;5150265;27;940;-64
2022/11/10 05:56:11;;;;;;;;;;;;;;;9.27;100.00;100575.75;5150161;27;854;-64
2022/11/10 05:58:37;;;;;;;;;;;;;;;9.20;100.00;100576.47;5150481;27;926;-65
2022/11/10 06:01:04;;;;;;;;;;;;;;;9.13;100.00;100582.69;5148842;27;1328;-64
2022/11/10 06:03:31;;;;;;;;;;;;;;;9.35;100.00;100583.75;5149950;27;818;-64
2022/11/10 06:05:57;;;;;;;;;;;;;;;9.72;100.00;100584.97;5149995;27;873;-64
2022/11/10 06:08:23;;;;;;;;;;;;;;;9.86;100.00;100579.59;5149944;27;921;-64
2022/11/10 06:10:50;;;;;;;;;;;;;;;9.82;100.00;100590.59;5148638;27;1174;-64
2022/11/10 06:13:16;;;;;;;;;;;;;;;9.73;100.00;100586.53;5149804;27;1942;-64
2022/11/10 06:15:43;;;;;;;;;;;;;;;9.94;100.00;100588.72;5150051;27;862;-64
2022/11/10 06:18:09;;;;;;;;;;;;;;;10.47;100.00;100593.19;5148579;27;1269;-64
2022/11/10 06:20:36;;;;;;;;;;;;;;;10.91;100.00;100590.38;5149934;27;842;-64
2022/11/10 06:23:04;;;;;;;;;;;;;;;11.27;100.00;100598.88;5148564;27;1194;-64
2022/11/10 06:25:32;;;;;;;;;;;;;;;11.53;100.00;100591.47;5150120;27;870;-63
2022/11/10 06:27:58;;;;;;;;;;;;;;;11.78;100.00;100610.94;5149631;27;873;-63
2022/11/10 06:30:26;;;;;;;;;;;;;;;11.73;100.00;100605.75;5149692;27;819;-63
2022/11/10 06:32:52;;;;;;;;;;;;;;;11.74;100.00;100613.69;5149395;27;1905;-64
2022/11/10 06:35:19;;;;;;;;;;;;;;;11.97;100.00;100618.13;5149488;27;865;-63
2022/11/10 06:37:46;;;;;;;;;;;;;;;12.07;100.00;100589.66;5149641;27;862;-63
2022/11/10 06:40:15;;;;;;;;;;;;;;;12.72;100.00;100615.44;5149580;27;893;-63
2022/11/10 06:42:41;;;;;;;;;;;;;;;13.38;100.00;100611.38;5148585;27;1273;-63
2022/11/10 06:45:08;;;;;;;;;;;;;;;13.78;100.00;100621.09;5134966;27;822;-63
2022/11/10 06:47:34;;;;;;;;;;;;;;;14.06;100.00;100619.34;5135612;27;835;-63
2022/11/10 06:50:01;;;;;;;;;;;;;;;14.19;100.00;100622.44;5135404;27;886;-62
2022/11/10 06:52:27;;;;;;;;;;;;;;;14.27;97.86;100627.56;5134086;27;1953;-62
2022/11/10 06:54:54;;;;;;;;;;;;;;;14.37;97.96;100633.47;5134182;27;1221;-63
2022/11/10 06:57:20;;;;;;;;;;;;;;;14.63;97.89;100627.31;5135352;27;858;-63
2022/11/10 06:59:47;;;;;;;;;;;;;;;15.00;96.87;100630.56;5135787;27;887;-63
2022/11/10 07:02:14;;;;;;;;;;;;;;;15.23;95.50;100633.50;5133730;27;1173;-63
2022/11/10 07:04:41;;;;;;;;;;;;;;;15.42;96.45;100626.53;5134094;27;1412;-64
2022/11/10 07:07:08;;;;;;;;;;;;;;;15.63;93.05;100639.41;5133834;27;1308;-64
2022/11/10 07:09:35;;;;;;;;;;;;;;;15.67;91.87;100629.00;5135732;27;838;-64
2022/11/10 07:12:02;;;;;;;;;;;;;;;15.83;91.19;100630.44;5134947;27;835;-64
2022/11/10 07:14:28;;;;;;;;;;;;;;;15.91;90.40;100632.69;5133619;27;1308;-64
2022/11/10 07:16:55;;;;;;;;;;;;;;;15.90;93.22;100639.50;5134800;27;862;-64
2022/11/10 07:19:21;;;;;;;;;;;;;;;15.90;91.79;100636.72;5134727;27;811;-64
2022/11/10 07:21:48;;;;;;;;;;;;;;;16.10;88.56;100645.19;5134664;27;1936;-64
2022/11/10 07:24:14;;;;;;;;;;;;;;;16.19;88.06;100650.25;5134630;27;918;-64
2022/11/10 07:26:41;;;;;;;;;;;;;;;16.40;88.90;100640.78;5134858;27;861;-64
2022/11/10 07:29:08;;;;;;;;;;;;;;;16.42;84.97;100643.94;5134604;27;874;-64
2022/11/10 07:31:34;;;;;;;;;;;;;;;16.35;84.19;100640.47;5133167;27;1280;-65
2022/11/10 07:34:01;;;;;;;;;;;;;;;16.53;84.49;100641.75;5134482;27;821;-64
2022/11/10 07:36:28;;;;;;;;;;;;;;;16.65;83.77;100639.59;5134569;27;826;-64
2022/11/10 07:38:54;;;;;;;;;;;;;;;16.62;81.01;100648.78;5134433;27;842;-64
2022/11/10 07:41:20;;;;;;;;;;;;;;;16.77;83.38;100641.78;5132902;27;1889;-64
2022/11/10 07:43:47;;;;;;;;;;;;;;;16.92;77.77;100639.56;5134196;27;1439;-64
2022/11/10 07:46:13;;;;;;;;;;;;;;;17.01;79.98;100639.00;5134275;27;878;-64
2022/11/10 07:48:40;;;;;;;;;;;;;;;17.19;76.27;100645.03;5134304;27;874;-64
2022/11/10 07:51:06;;;;;;;;;;;;;;;17.09;71.89;100640.44;5134176;27;839;-64
2022/11/10 07:53:33;;;;;;;;;;;;;;;16.89;67.91;100643.97;5132779;27;1392;-64
2022/11/10 07:55:59;;;;;;;;;;;;;;;16.83;69.65;100640.09;5133082;27;834;-64
2022/11/10 07:58:26;;;;;;;;;;;;;;;16.84;66.54;100643.69;5132726;27;1471;-63
2022/11/10 08:00:52;;;;;;;;;;;;;;;16.72;68.31;100639.47;5133981;27;794;-64
2022/11/10 08:03:20;;;;;;;;;;;;;;;17.04;68.01;100640.94;5132506;27;1909;-64
2022/11/10 08:05:46;;;;;;;;;;;;;;;17.41;63.75;100639.03;5132650;27;1288;-63
2022/11/10 08:08:13;;;;;;;;;;;;;;;17.32;63.21;100637.59;5133754;27;850;-64
2022/11/10 08:10:40;;;;;;;;;;;;;;;17.42;63.02;100641.41;5133840;27;815;-64
2022/11/10 08:13:08;;;;;;;;;;;;;;;17.71;62.53;100640.84;5132379;27;1335;-64
2022/11/10 08:15:36;;;;;;;;;;;;;;;17.75;61.16;100638.75;5133651;27;823;-63
